Terminal Aerodrome Forecast
Issued by NWS Wilmington, NC

Home | Current Version | Previous Version | Text Only | Print | Product List | Glossary On
Versions: 1 2 3 4 5 6 7 8 9 10 11 12
326
FTUS42 KILM 221120
TAFILM
TAF
KILM 221120Z 2212/2312 14008KT P6SM BKN070 BKN200
     FM230000 10002KT P6SM BKN070 BKN200
     FM230800 09002KT 5SM BR FEW020 SCT070=

USA.gov is the U.S. government's official web portal to all federal, state and local government web resources and services.